sensor_id;sensor_type;location;lat;lon;timestamp;pressure;altitude;pressure_sealevel;temperature;humidity
69306;BME280;56427;51.580;4.656;2022-08-03T00:00:40;101535.09;;;18.99;100.00
69306;BME280;56427;51.580;4.656;2022-08-03T00:03:05;101528.66;;;19.01;100.00
69306;BME280;56427;51.580;4.656;2022-08-03T00:05:31;101532.28;;;19.08;100.00
69306;BME280;56427;51.580;4.656;2022-08-03T00:07:58;101535.72;;;19.17;100.00
69306;BME280;56427;51.580;4.656;2022-08-03T00:10:23;101527.34;;;19.05;100.00
69306;BME280;56427;51.580;4.656;2022-08-03T00:12:49;101530.13;;;18.79;100.00
69306;BME280;56427;51.580;4.656;2022-08-03T00:15:15;101534.41;;;18.72;100.00
69306;BME280;56427;51.580;4.656;2022-08-03T00:17:40;101529.66;;;18.67;100.00
69306;BME280;56427;51.580;4.656;2022-08-03T00:20:06;101530.13;;;18.63;100.00
69306;BME280;56427;51.580;4.656;2022-08-03T00:22:33;101531.94;;;18.62;100.00
69306;BME280;56427;51.580;4.656;2022-08-03T00:24:59;101530.63;;;18.58;100.00
69306;BME280;56427;51.580;4.656;2022-08-03T00:27:24;101528.84;;;18.67;100.00
69306;BME280;56427;51.580;4.656;2022-08-03T00:29:51;101529.81;;;18.66;100.00
69306;BME280;56427;51.580;4.656;2022-08-03T00:32:16;101519.28;;;18.66;100.00
69306;BME280;56427;51.580;4.656;2022-08-03T00:34:41;101527.34;;;18.72;100.00
69306;BME280;56427;51.580;4.656;2022-08-03T00:37:06;101523.06;;;18.71;100.00
69306;BME280;56427;51.580;4.656;2022-08-03T00:39:32;101521.44;;;18.79;100.00
69306;BME280;56427;51.580;4.656;2022-08-03T00:42:01;101518.31;;;18.75;100.00
69306;BME280;56427;51.580;4.656;2022-08-03T00:44:26;101520.59;;;18.78;100.00
69306;BME280;56427;51.580;4.656;2022-08-03T00:46:52;101521.94;;;18.74;100.00
69306;BME280;56427;51.580;4.656;2022-08-03T00:49:17;101514.84;;;18.66;100.00
69306;BME280;56427;51.580;4.656;2022-08-03T00:51:42;101519.28;;;18.66;100.00
69306;BME280;56427;51.580;4.656;2022-08-03T00:54:09;101511.25;;;18.67;100.00
69306;BME280;56427;51.580;4.656;2022-08-03T00:56:34;101517.16;;;18.61;100.00
69306;BME280;56427;51.580;4.656;2022-08-03T00:59:02;101513.06;;;18.58;100.00
69306;BME280;56427;51.580;4.656;2022-08-03T01:01:27;101503.19;;;18.61;100.00
69306;BME280;56427;51.580;4.656;2022-08-03T01:03:52;101505.50;;;18.64;100.00
69306;BME280;56427;51.580;4.656;2022-08-03T01:09:25;101497.63;;;18.64;100.00
69306;BME280;56427;51.580;4.656;2022-08-03T01:12:21;101494.13;;;18.55;100.00
69306;BME280;56427;51.580;4.656;2022-08-03T01:15:09;101493.81;;;18.58;100.00
69306;BME280;56427;51.580;4.656;2022-08-03T01:20:10;101494.66;;;18.50;100.00
69306;BME280;56427;51.580;4.656;2022-08-03T01:23:09;101494.47;;;18.52;100.00
69306;BME280;56427;51.580;4.656;2022-08-03T01:28:32;101500.56;;;18.44;100.00
69306;BME280;56427;51.580;4.656;2022-08-03T01:31:06;101487.59;;;18.43;100.00
69306;BME280;56427;51.580;4.656;2022-08-03T01:33:43;101486.25;;;18.47;100.00
69306;BME280;56427;51.580;4.656;2022-08-03T01:36:13;101489.88;;;18.46;100.00
69306;BME280;56427;51.580;4.656;2022-08-03T01:38:53;101489.41;;;18.42;100.00
69306;BME280;56427;51.580;4.656;2022-08-03T01:41:23;101489.88;;;18.46;100.00
69306;BME280;56427;51.580;4.656;2022-08-03T01:43:50;101489.56;;;18.41;100.00
69306;BME280;56427;51.580;4.656;2022-08-03T01:46:18;101490.03;;;18.36;100.00
69306;BME280;56427;51.580;4.656;2022-08-03T01:48:46;101483.47;;;18.40;100.00
69306;BME280;56427;51.580;4.656;2022-08-03T01:51:14;101485.59;;;18.36;100.00
69306;BME280;56427;51.580;4.656;2022-08-03T01:53:40;101482.97;;;18.28;100.00
69306;BME280;56427;51.580;4.656;2022-08-03T01:56:09;101476.06;;;18.27;100.00
69306;BME280;56427;51.580;4.656;2022-08-03T01:58:36;101483.63;;;18.30;100.00
69306;BME280;56427;51.580;4.656;2022-08-03T02:01:04;101478.03;;;18.25;100.00
69306;BME280;56427;51.580;4.656;2022-08-03T02:03:30;101484.59;;;18.21;100.00
69306;BME280;56427;51.580;4.656;2022-08-03T02:05:59;101487.41;;;18.19;100.00
69306;BME280;56427;51.580;4.656;2022-08-03T02:08:25;101476.72;;;18.21;100.00
69306;BME280;56427;51.580;4.656;2022-08-03T02:10:53;101476.91;;;18.28;100.00
69306;BME280;56427;51.580;4.656;2022-08-03T02:13:21;101483.78;;;18.29;100.00
69306;BME280;56427;51.580;4.656;2022-08-03T02:15:48;101479.69;;;18.26;100.00
69306;BME280;56427;51.580;4.656;2022-08-03T02:18:17;101471.97;;;18.25;100.00
69306;BME280;56427;51.580;4.656;2022-08-03T02:20:43;101478.34;;;18.22;100.00
69306;BME280;56427;51.580;4.656;2022-08-03T02:23:10;101479.19;;;18.23;100.00
69306;BME280;56427;51.580;4.656;2022-08-03T02:25:40;101479.03;;;18.24;100.00
69306;BME280;56427;51.580;4.656;2022-08-03T02:28:10;101478.03;;;18.33;100.00
69306;BME280;56427;51.580;4.656;2022-08-03T02:30:37;101481.16;;;18.29;100.00
69306;BME280;56427;51.580;4.656;2022-08-03T02:33:04;101471.66;;;18.28;100.00
69306;BME280;56427;51.580;4.656;2022-08-03T02:35:32;101478.69;;;18.27;100.00
69306;BME280;56427;51.580;4.656;2022-08-03T02:38:01;101469.19;;;18.26;100.00
69306;BME280;56427;51.580;4.656;2022-08-03T02:40:28;101467.84;;;18.38;100.00
69306;BME280;56427;51.580;4.656;2022-08-03T02:42:57;101464.56;;;18.36;100.00
69306;BME280;56427;51.580;4.656;2022-08-03T02:45:24;101458.84;;;18.33;100.00
69306;BME280;56427;51.580;4.656;2022-08-03T02:47:55;101466.88;;;18.31;100.00
69306;BME280;56427;51.580;4.656;2022-08-03T02:50:23;101462.28;;;18.33;100.00
69306;BME280;56427;51.580;4.656;2022-08-03T02:52:50;101462.09;;;18.35;100.00
69306;BME280;56427;51.580;4.656;2022-08-03T02:55:19;101462.75;;;18.29;100.00
69306;BME280;56427;51.580;4.656;2022-08-03T02:57:46;101452.25;;;18.29;100.00
69306;BME280;56427;51.580;4.656;2022-08-03T03:00:12;101448.63;;;18.21;100.00
69306;BME280;56427;51.580;4.656;2022-08-03T03:02:39;101448.97;;;18.18;100.00
69306;BME280;56427;51.580;4.656;2022-08-03T03:05:05;101449.44;;;18.22;100.00
69306;BME280;56427;51.580;4.656;2022-08-03T03:07:31;101450.94;;;18.33;100.00
69306;BME280;56427;51.580;4.656;2022-08-03T03:09:57;101441.88;;;18.19;100.00
69306;BME280;56427;51.580;4.656;2022-08-03T03:12:25;101441.09;;;18.18;100.00
69306;BME280;56427;51.580;4.656;2022-08-03T03:14:51;101442.25;;;18.16;100.00
69306;BME280;56427;51.580;4.656;2022-08-03T03:17:17;101442.41;;;18.14;100.00
69306;BME280;56427;51.580;4.656;2022-08-03T03:19:44;101447.81;;;18.13;100.00
69306;BME280;56427;51.580;4.656;2022-08-03T03:22:10;101442.72;;;18.11;100.00
69306;BME280;56427;51.580;4.656;2022-08-03T03:24:38;101440.75;;;18.05;100.00
69306;BME280;56427;51.580;4.656;2022-08-03T03:27:04;101440.59;;;18.07;100.00
69306;BME280;56427;51.580;4.656;2022-08-03T03:29:31;101444.88;;;18.08;100.00
69306;BME280;56427;51.580;4.656;2022-08-03T03:31:56;101437.16;;;18.06;100.00
69306;BME280;56427;51.580;4.656;2022-08-03T03:34:22;101442.41;;;18.06;100.00
69306;BME280;56427;51.580;4.656;2022-08-03T03:36:48;101440.25;;;18.01;100.00
69306;BME280;56427;51.580;4.656;2022-08-03T03:39:14;101435.81;;;18.02;100.00
69306;BME280;56427;51.580;4.656;2022-08-03T03:41:39;101446.00;;;18.05;100.00
69306;BME280;56427;51.580;4.656;2022-08-03T03:44:04;101442.38;;;17.98;100.00
69306;BME280;56427;51.580;4.656;2022-08-03T03:46:30;101438.25;;;17.95;100.00
69306;BME280;56427;51.580;4.656;2022-08-03T03:48:56;101441.38;;;17.99;100.00
69306;BME280;56427;51.580;4.656;2022-08-03T03:51:21;101441.84;;;17.94;100.00
69306;BME280;56427;51.580;4.656;2022-08-03T03:53:57;101445.81;;;17.90;100.00
69306;BME280;56427;51.580;4.656;2022-08-03T03:56:23;101448.88;;;17.85;100.00
69306;BME280;56427;51.580;4.656;2022-08-03T03:58:49;101447.56;;;17.81;100.00
69306;BME280;56427;51.580;4.656;2022-08-03T04:01:15;101454.09;;;17.77;100.00
69306;BME280;56427;51.580;4.656;2022-08-03T04:03:40;101444.94;;;17.73;100.00
69306;BME280;56427;51.580;4.656;2022-08-03T04:06:05;101450.31;;;17.63;100.00
69306;BME280;56427;51.580;4.656;2022-08-03T04:08:49;101449.47;;;17.63;100.00
69306;BME280;56427;51.580;4.656;2022-08-03T04:11:31;101455.25;;;17.66;100.00
69306;BME280;56427;51.580;4.656;2022-08-03T04:14:18;101452.44;;;17.60;100.00
69306;BME280;56427;51.580;4.656;2022-08-03T04:16:47;101453.59;;;17.65;100.00
69306;BME280;56427;51.580;4.656;2022-08-03T04:19:33;101456.72;;;17.69;100.00
69306;BME280;56427;51.580;4.656;2022-08-03T04:22:04;101448.19;;;17.67;100.00
69306;BME280;56427;51.580;4.656;2022-08-03T04:24:33;101454.41;;;17.66;100.00
69306;BME280;56427;51.580;4.656;2022-08-03T04:27:01;101450.97;;;17.65;100.00
69306;BME280;56427;51.580;4.656;2022-08-03T04:29:29;101455.09;;;17.76;100.00
69306;BME280;56427;51.580;4.656;2022-08-03T04:31:58;101463.38;;;17.90;100.00
69306;BME280;56427;51.580;4.656;2022-08-03T04:34:24;101455.53;;;18.14;100.00
69306;BME280;56427;51.580;4.656;2022-08-03T04:36:52;101454.06;;;18.28;100.00
69306;BME280;56427;51.580;4.656;2022-08-03T04:39:25;101464.75;;;18.51;100.00
69306;BME280;56427;51.580;4.656;2022-08-03T04:41:53;101462.94;;;18.52;100.00
69306;BME280;56427;51.580;4.656;2022-08-03T04:44:20;101467.38;;;18.35;100.00
69306;BME280;56427;51.580;4.656;2022-08-03T04:46:47;101470.16;;;18.42;100.00
69306;BME280;56427;51.580;4.656;2022-08-03T04:49:13;101476.25;;;18.42;100.00
69306;BME280;56427;51.580;4.656;2022-08-03T04:51:38;101478.03;;;18.42;100.00
69306;BME280;56427;51.580;4.656;2022-08-03T04:54:04;101472.94;;;18.65;100.00
69306;BME280;56427;51.580;4.656;2022-08-03T04:56:31;101470.97;;;19.08;100.00
69306;BME280;56427;51.580;4.656;2022-08-03T04:58:58;101480.56;;;19.40;100.00
69306;BME280;56427;51.580;4.656;2022-08-03T05:01:23;101481.94;;;19.76;100.00
69306;BME280;56427;51.580;4.656;2022-08-03T05:03:48;101481.16;;;19.98;100.00
69306;BME280;56427;51.580;4.656;2022-08-03T05:06:14;101481.97;;;19.99;100.00
69306;BME280;56427;51.580;4.656;2022-08-03T05:08:39;101490.66;;;19.99;100.00
69306;BME280;56427;51.580;4.656;2022-08-03T05:11:05;101485.75;;;19.96;100.00
69306;BME280;56427;51.580;4.656;2022-08-03T05:13:30;101492.03;;;20.41;100.00
69306;BME280;56427;51.580;4.656;2022-08-03T05:15:55;101489.41;;;20.65;97.25
69306;BME280;56427;51.580;4.656;2022-08-03T05:18:21;101492.88;;;20.80;97.07
69306;BME280;56427;51.580;4.656;2022-08-03T05:20:46;101485.84;;;21.10;93.79
69306;BME280;56427;51.580;4.656;2022-08-03T05:23:11;101499.44;;;20.69;94.45
69306;BME280;56427;51.580;4.656;2022-08-03T05:25:37;101492.91;;;21.10;94.60
69306;BME280;56427;51.580;4.656;2022-08-03T05:28:02;101492.84;;;21.18;93.72
69306;BME280;56427;51.580;4.656;2022-08-03T05:30:27;101493.59;;;21.57;91.50
69306;BME280;56427;51.580;4.656;2022-08-03T05:32:53;101499.66;;;21.12;93.73
69306;BME280;56427;51.580;4.656;2022-08-03T05:35:18;101499.38;;;20.92;94.08
69306;BME280;56427;51.580;4.656;2022-08-03T05:37:43;101493.59;;;21.27;94.95
69306;BME280;56427;51.580;4.656;2022-08-03T05:40:09;101502.66;;;21.39;92.48
69306;BME280;56427;51.580;4.656;2022-08-03T05:42:36;101486.19;;;21.22;93.13
69306;BME280;56427;51.580;4.656;2022-08-03T05:45:05;101493.41;;;21.28;92.64
69306;BME280;56427;51.580;4.656;2022-08-03T05:47:40;101500.78;;;21.63;91.97
69306;BME280;56427;51.580;4.656;2022-08-03T05:50:09;101499.31;;;21.97;89.51
69306;BME280;56427;51.580;4.656;2022-08-03T05:52:34;101503.25;;;22.66;86.76
69306;BME280;56427;51.580;4.656;2022-08-03T05:54:59;101497.94;;;22.01;88.61
69306;BME280;56427;51.580;4.656;2022-08-03T05:57:25;101500.63;;;22.44;86.34
69306;BME280;56427;51.580;4.656;2022-08-03T05:59:50;101509.28;;;22.59;84.71
69306;BME280;56427;51.580;4.656;2022-08-03T06:02:15;101495.56;;;22.28;87.92
69306;BME280;56427;51.580;4.656;2022-08-03T06:04:40;101500.69;;;22.79;84.16
69306;BME280;56427;51.580;4.656;2022-08-03T06:07:06;101498.66;;;23.38;82.65
69306;BME280;56427;51.580;4.656;2022-08-03T06:09:31;101497.69;;;24.27;79.67
69306;BME280;56427;51.580;4.656;2022-08-03T06:11:56;101504.25;;;24.31;76.99
69306;BME280;56427;51.580;4.656;2022-08-03T06:14:22;101505.50;;;24.82;74.98
69306;BME280;56427;51.580;4.656;2022-08-03T06:16:47;101509.81;;;23.33;81.94
69306;BME280;56427;51.580;4.656;2022-08-03T06:19:12;101503.84;;;23.66;81.13
69306;BME280;56427;51.580;4.656;2022-08-03T06:21:37;101504.69;;;23.73;80.82
69306;BME280;56427;51.580;4.656;2022-08-03T06:24:03;101505.97;;;23.84;80.70
69306;BME280;56427;51.580;4.656;2022-08-03T06:26:28;101507.91;;;23.62;80.56
69306;BME280;56427;51.580;4.656;2022-08-03T06:28:53;101514.88;;;23.76;80.27
69306;BME280;56427;51.580;4.656;2022-08-03T06:31:21;101512.03;;;23.71;80.29
69306;BME280;56427;51.580;4.656;2022-08-03T06:33:47;101515.78;;;23.83;80.69
69306;BME280;56427;51.580;4.656;2022-08-03T06:36:13;101509.38;;;24.59;76.11
69306;BME280;56427;51.580;4.656;2022-08-03T06:38:38;101517.13;;;24.54;76.18
69306;BME280;56427;51.580;4.656;2022-08-03T06:41:03;101517.03;;;25.41;73.64
69306;BME280;56427;51.580;4.656;2022-08-03T06:43:29;101516.50;;;24.92;74.18
69306;BME280;56427;51.580;4.656;2022-08-03T06:45:54;101516.38;;;25.46;72.82
69306;BME280;56427;51.580;4.656;2022-08-03T06:48:19;101509.94;;;24.95;73.48
69306;BME280;56427;51.580;4.656;2022-08-03T06:50:45;101517.94;;;24.75;74.60
69306;BME280;56427;51.580;4.656;2022-08-03T06:53:10;101512.59;;;24.88;74.85
69306;BME280;56427;51.580;4.656;2022-08-03T06:55:35;101510.97;;;25.73;71.99
69306;BME280;56427;51.580;4.656;2022-08-03T06:58:01;101518.03;;;25.40;71.52
69306;BME280;56427;51.580;4.656;2022-08-03T07:00:26;101513.63;;;25.01;72.38
69306;BME280;56427;51.580;4.656;2022-08-03T07:02:52;101519.09;;;25.32;72.25
69306;BME280;56427;51.580;4.656;2022-08-03T07:05:18;101523.94;;;26.01;69.67
69306;BME280;56427;51.580;4.656;2022-08-03T07:07:44;101523.19;;;25.80;69.47
69306;BME280;56427;51.580;4.656;2022-08-03T07:10:10;101527.47;;;25.23;70.61
69306;BME280;56427;51.580;4.656;2022-08-03T07:12:36;101525.75;;;25.55;70.11
69306;BME280;56427;51.580;4.656;2022-08-03T07:15:03;101530.81;;;25.70;69.85
69306;BME280;56427;51.580;4.656;2022-08-03T07:17:30;101528.63;;;26.05;67.80
69306;BME280;56427;51.580;4.656;2022-08-03T07:19:55;101528.38;;;26.39;67.18
69306;BME280;56427;51.580;4.656;2022-08-03T07:22:21;101531.97;;;25.87;68.04
69306;BME280;56427;51.580;4.656;2022-08-03T07:24:46;101524.00;;;25.81;68.58
69306;BME280;56427;51.580;4.656;2022-08-03T07:27:11;101538.53;;;26.17;67.81
69306;BME280;56427;51.580;4.656;2022-08-03T07:29:37;101540.78;;;26.20;67.31
69306;BME280;56427;51.580;4.656;2022-08-03T07:32:03;101537.94;;;26.15;67.30
69306;BME280;56427;51.580;4.656;2022-08-03T07:34:28;101548.47;;;26.03;68.11
69306;BME280;56427;51.580;4.656;2022-08-03T07:36:55;101546.13;;;26.13;67.63
69306;BME280;56427;51.580;4.656;2022-08-03T07:39:21;101541.50;;;27.09;64.79
69306;BME280;56427;51.580;4.656;2022-08-03T07:41:46;101538.81;;;26.40;65.78
69306;BME280;56427;51.580;4.656;2022-08-03T07:44:14;101538.97;;;26.45;65.98
69306;BME280;56427;51.580;4.656;2022-08-03T07:46:39;101538.19;;;27.14;63.44
69306;BME280;56427;51.580;4.656;2022-08-03T07:49:05;101535.69;;;27.86;61.19
69306;BME280;56427;51.580;4.656;2022-08-03T07:51:30;101542.22;;;28.21;60.30
69306;BME280;56427;51.580;4.656;2022-08-03T07:53:55;101541.56;;;27.77;61.75
69306;BME280;56427;51.580;4.656;2022-08-03T07:56:22;101544.69;;;27.18;62.56
69306;BME280;56427;51.580;4.656;2022-08-03T07:58:49;101534.97;;;27.05;63.56
69306;BME280;56427;51.580;4.656;2022-08-03T08:01:15;101534.19;;;27.60;62.37
69306;BME280;56427;51.580;4.656;2022-08-03T08:03:41;101536.22;;;27.95;60.58
69306;BME280;56427;51.580;4.656;2022-08-03T08:06:06;101535.44;;;28.06;59.63
69306;BME280;56427;51.580;4.656;2022-08-03T08:08:31;101532.94;;;28.47;58.21
69306;BME280;56427;51.580;4.656;2022-08-03T08:10:57;101537.25;;;27.94;59.54
69306;BME280;56427;51.580;4.656;2022-08-03T08:13:23;101537.75;;;27.54;59.97
69306;BME280;56427;51.580;4.656;2022-08-03T08:15:48;101532.88;;;27.81;60.61
69306;BME280;56427;51.580;4.656;2022-08-03T08:18:13;101536.06;;;27.90;59.08
69306;BME280;56427;51.580;4.656;2022-08-03T08:20:39;101542.69;;;28.30;59.28
69306;BME280;56427;51.580;4.656;2022-08-03T08:23:08;101530.91;;;28.96;57.96
69306;BME280;56427;51.580;4.656;2022-08-03T08:25:33;101535.19;;;29.09;57.37
69306;BME280;56427;51.580;4.656;2022-08-03T08:27:59;101527.00;;;28.21;58.60
69306;BME280;56427;51.580;4.656;2022-08-03T08:30:29;101538.69;;;28.98;56.85
69306;BME280;56427;51.580;4.656;2022-08-03T08:32:54;101532.97;;;29.30;54.71
69306;BME280;56427;51.580;4.656;2022-08-03T08:35:20;101532.75;;;28.96;54.62
69306;BME280;56427;51.580;4.656;2022-08-03T08:37:45;101527.00;;;29.51;54.50
69306;BME280;56427;51.580;4.656;2022-08-03T08:40:11;101524.41;;;29.57;52.67
69306;BME280;56427;51.580;4.656;2022-08-03T08:42:41;101527.41;;;29.31;53.13
69306;BME280;56427;51.580;4.656;2022-08-03T08:45:07;101535.44;;;28.96;53.60
69306;BME280;56427;51.580;4.656;2022-08-03T08:47:36;101533.69;;;29.13;53.55
69306;BME280;56427;51.580;4.656;2022-08-03T08:50:02;101524.88;;;28.77;53.60
69306;BME280;56427;51.580;4.656;2022-08-03T08:52:29;101524.88;;;29.25;53.13
69306;BME280;56427;51.580;4.656;2022-08-03T08:54:57;101529.81;;;29.45;51.67
69306;BME280;56427;51.580;4.656;2022-08-03T08:57:30;101528.97;;;29.56;51.13
69306;BME280;56427;51.580;4.656;2022-08-03T09:00:00;101532.97;;;29.06;53.58
69306;BME280;56427;51.580;4.656;2022-08-03T09:02:28;101527.66;;;28.94;52.75
69306;BME280;56427;51.580;4.656;2022-08-03T09:04:53;101521.97;;;28.79;53.09
69306;BME280;56427;51.580;4.656;2022-08-03T09:07:19;101532.75;;;28.96;54.01
69306;BME280;56427;51.580;4.656;2022-08-03T09:09:46;101528.94;;;28.92;52.65
69306;BME280;56427;51.580;4.656;2022-08-03T09:12:11;101531.34;;;29.29;53.37
69306;BME280;56427;51.580;4.656;2022-08-03T09:14:36;101533.81;;;29.18;51.69
69306;BME280;56427;51.580;4.656;2022-08-03T09:17:03;101540.34;;;29.51;51.00
69306;BME280;56427;51.580;4.656;2022-08-03T09:19:30;101532.91;;;30.11;50.85
69306;BME280;56427;51.580;4.656;2022-08-03T09:22:18;101532.16;;;29.29;50.70
69306;BME280;56427;51.580;4.656;2022-08-03T09:25:01;101536.00;;;28.98;51.45
69306;BME280;56427;51.580;4.656;2022-08-03T09:27:28;101536.88;;;29.51;48.91
69306;BME280;56427;51.580;4.656;2022-08-03T09:29:53;101530.63;;;30.71;47.34
69306;BME280;56427;51.580;4.656;2022-08-03T09:32:20;101537.72;;;30.60;46.37
69306;BME280;56427;51.580;4.656;2022-08-03T09:34:51;101530.38;;;30.21;45.88
69306;BME280;56427;51.580;4.656;2022-08-03T09:37:19;101535.00;;;29.51;47.98
69306;BME280;56427;51.580;4.656;2022-08-03T09:39:46;101531.25;;;30.39;46.15
69306;BME280;56427;51.580;4.656;2022-08-03T09:42:12;101524.88;;;30.11;47.51
69306;BME280;56427;51.580;4.656;2022-08-03T09:44:48;101536.97;;;29.56;48.53
69306;BME280;56427;51.580;4.656;2022-08-03T09:47:15;101531.06;;;30.28;46.99
69306;BME280;56427;51.580;4.656;2022-08-03T09:50:02;101524.97;;;30.33;46.46
69306;BME280;56427;51.580;4.656;2022-08-03T09:52:39;101532.81;;;30.91;44.99
69306;BME280;56427;51.580;4.656;2022-08-03T09:55:10;101529.28;;;31.51;43.86
69306;BME280;56427;51.580;4.656;2022-08-03T09:57:35;101531.44;;;31.27;44.52
69306;BME280;56427;51.580;4.656;2022-08-03T10:02:31;101528.75;;;29.74;45.93
69306;BME280;56427;51.580;4.656;2022-08-03T10:04:56;101525.78;;;30.51;46.34
69306;BME280;56427;51.580;4.656;2022-08-03T10:07:23;101530.91;;;31.08;45.11
69306;BME280;56427;51.580;4.656;2022-08-03T10:10:00;101517.47;;;31.25;43.10
69306;BME280;56427;51.580;4.656;2022-08-03T10:12:26;101520.53;;;30.39;43.72
69306;BME280;56427;51.580;4.656;2022-08-03T10:14:52;101522.19;;;31.62;43.45
69306;BME280;56427;51.580;4.656;2022-08-03T10:17:18;101518.31;;;31.31;43.93
69306;BME280;56427;51.580;4.656;2022-08-03T10:19:45;101520.19;;;31.30;43.54
69306;BME280;56427;51.580;4.656;2022-08-03T10:22:15;101519.69;;;30.21;45.93
69306;BME280;56427;51.580;4.656;2022-08-03T10:24:58;101522.47;;;30.26;44.91
69306;BME280;56427;51.580;4.656;2022-08-03T10:27:30;101510.44;;;31.02;44.18
69306;BME280;56427;51.580;4.656;2022-08-03T10:30:00;101512.97;;;32.07;42.88
69306;BME280;56427;51.580;4.656;2022-08-03T10:32:48;101513.06;;;30.58;44.56
69306;BME280;56427;51.580;4.656;2022-08-03T10:35:21;101518.69;;;30.95;44.24
69306;BME280;56427;51.580;4.656;2022-08-03T10:37:58;101520.44;;;30.51;44.81
69306;BME280;56427;51.580;4.656;2022-08-03T10:40:27;101513.28;;;30.22;46.05
69306;BME280;56427;51.580;4.656;2022-08-03T10:42:55;101513.94;;;30.63;46.16
69306;BME280;56427;51.580;4.656;2022-08-03T10:45:24;101509.09;;;30.99;45.20
69306;BME280;56427;51.580;4.656;2022-08-03T10:47:52;101513.16;;;31.73;43.34
69306;BME280;56427;51.580;4.656;2022-08-03T10:50:18;101517.13;;;30.26;46.47
69306;BME280;56427;51.580;4.656;2022-08-03T10:52:57;101520.69;;;30.66;47.19
69306;BME280;56427;51.580;4.656;2022-08-03T10:55:37;101509.13;;;31.49;44.40
69306;BME280;56427;51.580;4.656;2022-08-03T10:58:47;101514.56;;;29.45;47.21
69306;BME280;56427;51.580;4.656;2022-08-03T11:01:16;101512.31;;;30.62;45.63
69306;BME280;56427;51.580;4.656;2022-08-03T11:06:30;101497.06;;;30.12;46.97
69306;BME280;56427;51.580;4.656;2022-08-03T11:11:37;101503.91;;;31.59;45.14
69306;BME280;56427;51.580;4.656;2022-08-03T11:14:06;101493.97;;;30.71;47.17
69306;BME280;56427;51.580;4.656;2022-08-03T11:16:44;101487.69;;;30.82;45.88
69306;BME280;56427;51.580;4.656;2022-08-03T11:19:15;101493.75;;;30.95;45.79
69306;BME280;56427;51.580;4.656;2022-08-03T11:27:20;101490.38;;;30.65;46.52
69306;BME280;56427;51.580;4.656;2022-08-03T11:35:30;101483.31;;;29.91;49.90
69306;BME280;56427;51.580;4.656;2022-08-03T11:40:44;101493.16;;;30.54;47.53
69306;BME280;56427;51.580;4.656;2022-08-03T11:46:02;101496.63;;;31.82;45.82
69306;BME280;56427;51.580;4.656;2022-08-03T11:48:39;101491.38;;;30.98;46.31
69306;BME280;56427;51.580;4.656;2022-08-03T11:51:23;101492.28;;;31.04;47.62
69306;BME280;56427;51.580;4.656;2022-08-03T11:53:59;101492.56;;;30.69;47.81
69306;BME280;56427;51.580;4.656;2022-08-03T11:56:26;101498.88;;;31.68;46.79
69306;BME280;56427;51.580;4.656;2022-08-03T11:58:55;101495.72;;;31.49;46.44
69306;BME280;56427;51.580;4.656;2022-08-03T12:01:21;101494.56;;;31.62;47.24
69306;BME280;56427;51.580;4.656;2022-08-03T12:03:47;101503.94;;;31.64;46.59
69306;BME280;56427;51.580;4.656;2022-08-03T12:06:14;101498.56;;;30.37;48.46
69306;BME280;56427;51.580;4.656;2022-08-03T12:08:41;101496.28;;;31.51;46.25
69306;BME280;56427;51.580;4.656;2022-08-03T12:11:08;101486.69;;;30.16;47.61
69306;BME280;56427;51.580;4.656;2022-08-03T12:13:48;101488.50;;;31.05;46.11
69306;BME280;56427;51.580;4.656;2022-08-03T12:16:20;101491.50;;;31.31;46.57
69306;BME280;56427;51.580;4.656;2022-08-03T12:18:59;101484.34;;;31.14;46.45
69306;BME280;56427;51.580;4.656;2022-08-03T12:21:26;101491.25;;;31.82;45.50
69306;BME280;56427;51.580;4.656;2022-08-03T12:24:03;101486.59;;;30.44;46.64
69306;BME280;56427;51.580;4.656;2022-08-03T12:26:40;101486.03;;;30.08;48.39
69306;BME280;56427;51.580;4.656;2022-08-03T12:29:06;101492.50;;;31.47;46.43
69306;BME280;56427;51.580;4.656;2022-08-03T12:31:32;101494.09;;;31.70;45.67
69306;BME280;56427;51.580;4.656;2022-08-03T12:34:02;101490.13;;;30.84;47.73
69306;BME280;56427;51.580;4.656;2022-08-03T12:36:30;101487.56;;;31.88;45.86
69306;BME280;56427;51.580;4.656;2022-08-03T12:39:04;101489.97;;;31.89;45.72
69306;BME280;56427;51.580;4.656;2022-08-03T12:41:32;101490.69;;;30.86;47.53
69306;BME280;56427;51.580;4.656;2022-08-03T12:43:59;101481.72;;;31.96;45.61
69306;BME280;56427;51.580;4.656;2022-08-03T12:46:30;101481.63;;;32.18;44.83
69306;BME280;56427;51.580;4.656;2022-08-03T12:49:15;101484.28;;;32.51;44.75
69306;BME280;56427;51.580;4.656;2022-08-03T12:54:09;101483.34;;;30.98;46.66
69306;BME280;56427;51.580;4.656;2022-08-03T12:56:34;101479.16;;;32.12;44.86
69306;BME280;56427;51.580;4.656;2022-08-03T12:59:27;101473.72;;;32.81;43.64
69306;BME280;56427;51.580;4.656;2022-08-03T13:01:52;101471.03;;;32.81;43.48
69306;BME280;56427;51.580;4.656;2022-08-03T13:04:26;101475.63;;;32.06;44.49
69306;BME280;56427;51.580;4.656;2022-08-03T13:07:02;101471.19;;;31.89;45.81
69306;BME280;56427;51.580;4.656;2022-08-03T13:09:28;101459.84;;;32.57;45.70
69306;BME280;56427;51.580;4.656;2022-08-03T13:12:17;101473.06;;;33.27;42.92
69306;BME280;56427;51.580;4.656;2022-08-03T13:14:45;101475.34;;;32.45;42.96
69306;BME280;56427;51.580;4.656;2022-08-03T13:17:11;101477.03;;;32.56;44.68
69306;BME280;56427;51.580;4.656;2022-08-03T13:19:38;101461.25;;;33.28;43.03
69306;BME280;56427;51.580;4.656;2022-08-03T13:22:13;101459.16;;;32.72;44.56
69306;BME280;56427;51.580;4.656;2022-08-03T13:24:40;101468.56;;;33.53;42.83
69306;BME280;56427;51.580;4.656;2022-08-03T13:27:06;101461.56;;;32.26;43.90